Terminal Aerodrome Forecast
Issued by NWS Los Angeles, CA

Home | Current Version | Previous Version | Text Only | Print | Product List | Glossary On
Versions: 1 2 3 4 5 6 7 8 9 10 11 12 13 14 15 16 17 18 19 20 21 22 23 24
000
FTUS46 KLOX 221740
TAFSMX
TAF
KSMX 221740Z 2218/2318 31005KT P6SM BKN025 BKN035
     FM222000 30009KT P6SM SCT035 BKN040
     FM222100 30014KT P6SM SCT035 BKN050
     FM230300 30009KT P6SM BKN025
     FM230900 30005KT 5SM BR SCT007 OVC012
     FM231500 VRB03KT P6SM SCT015 SCT250=

USA.gov is the U.S. government's official web portal to all federal, state and local government web resources and services.